createdAt,value
2022-10-22T00:01:36.615Z,99.50
2022-10-22T00:04:03.029Z,99.69
2022-10-22T00:06:29.446Z,99.51
2022-10-22T00:08:55.935Z,99.23
2022-10-22T00:11:22.356Z,99.82
2022-10-22T00:13:50.143Z,100.00
2022-10-22T00:16:16.679Z,100.00
2022-10-22T00:18:43.057Z,100.00
2022-10-22T00:21:09.491Z,100.00
2022-10-22T00:23:35.958Z,99.95
2022-10-22T00:26:02.451Z,99.36
2022-10-22T00:28:28.877Z,98.92
2022-10-22T00:30:57.331Z,99.21
2022-10-22T00:33:24.250Z,98.80
2022-10-22T00:35:50.724Z,98.71
2022-10-22T00:38:17.832Z,97.80
2022-10-22T00:40:44.290Z,98.46
2022-10-22T00:43:16.756Z,98.81
2022-10-22T00:45:44.091Z,98.35
2022-10-22T00:48:13.364Z,98.60
2022-10-22T00:50:52.699Z,99.05
2022-10-22T00:53:22.512Z,98.72
2022-10-22T00:55:52.644Z,99.03
2022-10-22T00:58:22.181Z,98.73
2022-10-22T01:00:48.793Z,98.84
2022-10-22T01:03:15.262Z,98.45
2022-10-22T01:05:52.526Z,98.23
2022-10-22T01:08:48.161Z,98.29
2022-10-22T01:11:20.770Z,97.09
2022-10-22T01:14:00.317Z,97.31
2022-10-22T01:16:41.905Z,98.32
2022-10-22T01:19:16.375Z,98.81
2022-10-22T01:21:46.984Z,98.70
2022-10-22T01:24:16.912Z,98.71
2022-10-22T01:26:56.686Z,100.00
2022-10-22T01:29:50.427Z,100.00
2022-10-22T01:32:23.412Z,100.00
2022-10-22T01:34:57.585Z,100.00
2022-10-22T01:37:27.727Z,100.00
2022-10-22T01:39:55.792Z,100.00
2022-10-22T01:42:23.479Z,100.00
2022-10-22T01:44:50.218Z,100.00
2022-10-22T01:47:39.974Z,100.00
2022-10-22T01:50:45.049Z,100.00
2022-10-22T01:53:36.189Z,100.00
2022-10-22T01:56:38.032Z,100.00
2022-10-22T01:59:11.196Z,100.00
2022-10-22T02:01:52.295Z,100.00
2022-10-22T02:04:26.469Z,100.00
2022-10-22T02:06:58.253Z,100.00
2022-10-22T02:09:27.864Z,100.00
2022-10-22T02:11:55.651Z,100.00
2022-10-22T02:14:24.540Z,99.73
2022-10-22T02:16:51.120Z,99.50
2022-10-22T02:19:27.671Z,99.49
2022-10-22T02:21:55.086Z,100.00
2022-10-22T02:24:22.516Z,100.00
2022-10-22T02:27:01.190Z,100.00
2022-10-22T02:29:35.888Z,100.00
2022-10-22T02:32:05.684Z,100.00
2022-10-22T02:34:32.428Z,100.00
2022-10-22T02:37:01.622Z,99.75
2022-10-22T02:39:29.562Z,99.16
2022-10-22T02:41:57.924Z,97.68
2022-10-22T02:44:24.765Z,98.02
2022-10-22T02:46:51.250Z,97.02
2022-10-22T02:49:17.898Z,97.31
2022-10-22T02:51:44.408Z,97.58
2022-10-22T02:54:10.829Z,96.88
2022-10-22T02:56:37.183Z,96.99
2022-10-22T02:59:03.941Z,99.04
2022-10-22T03:01:30.534Z,100.00
2022-10-22T03:03:56.897Z,100.00
2022-10-22T03:06:23.272Z,100.00
2022-10-22T03:08:49.777Z,100.00
2022-10-22T03:11:16.204Z,100.00
2022-10-22T03:13:42.604Z,100.00
2022-10-22T03:16:09.059Z,100.00
2022-10-22T03:18:35.641Z,100.00
2022-10-22T03:21:13.624Z,100.00
2022-10-22T03:23:43.407Z,100.00
2022-10-22T03:26:12.995Z,100.00
2022-10-22T03:28:40.850Z,100.00
2022-10-22T03:31:07.285Z,100.00
2022-10-22T03:33:33.707Z,100.00
2022-10-22T03:36:00.855Z,100.00
2022-10-22T03:38:27.338Z,100.00
2022-10-22T03:40:53.803Z,100.00
2022-10-22T03:43:23.187Z,100.00
2022-10-22T03:45:49.568Z,100.00
2022-10-22T03:48:15.924Z,100.00
2022-10-22T03:50:42.396Z,100.00
2022-10-22T03:53:10.541Z,100.00
2022-10-22T03:55:38.226Z,100.00
2022-10-22T03:58:05.583Z,100.00
2022-10-22T04:00:33.894Z,100.00
2022-10-22T04:03:00.295Z,100.00
2022-10-22T04:05:26.863Z,100.00
2022-10-22T04:07:53.308Z,100.00
2022-10-22T04:10:19.741Z,100.00
2022-10-22T04:12:49.550Z,100.00
2022-10-22T04:15:16.516Z,100.00
2022-10-22T04:17:43.337Z,100.00
2022-10-22T04:20:11.204Z,100.00
2022-10-22T04:22:37.698Z,100.00
2022-10-22T04:25:04.878Z,100.00
2022-10-22T04:27:32.994Z,100.00
2022-10-22T04:29:59.357Z,100.00
2022-10-22T04:32:27.171Z,100.00
2022-10-22T04:34:53.744Z,100.00
2022-10-22T04:37:20.462Z,100.00
2022-10-22T04:39:46.917Z,100.00
2022-10-22T04:42:13.429Z,100.00
2022-10-22T04:44:39.857Z,100.00
2022-10-22T04:47:06.530Z,100.00
2022-10-22T04:49:32.978Z,100.00
2022-10-22T04:51:59.381Z,100.00
2022-10-22T04:54:29.011Z,100.00
2022-10-22T04:56:58.836Z,100.00
2022-10-22T04:59:25.255Z,100.00
2022-10-22T05:01:51.650Z,100.00
2022-10-22T05:04:19.633Z,100.00
2022-10-22T05:06:46.215Z,100.00
2022-10-22T05:09:20.218Z,100.00
2022-10-22T05:11:49.140Z,100.00
2022-10-22T05:14:21.216Z,100.00
2022-10-22T05:16:49.010Z,100.00
2022-10-22T05:19:19.432Z,100.00
2022-10-22T05:21:45.881Z,100.00
2022-10-22T05:24:12.936Z,100.00
2022-10-22T05:26:39.340Z,100.00
2022-10-22T05:29:05.767Z,100.00
2022-10-22T05:31:32.259Z,100.00
2022-10-22T05:33:58.693Z,100.00
2022-10-22T05:36:25.574Z,100.00
2022-10-22T05:38:52.143Z,100.00
2022-10-22T05:41:23.857Z,100.00
2022-10-22T05:43:50.440Z,100.00
2022-10-22T05:46:22.545Z,100.00
2022-10-22T05:48:57.854Z,100.00
2022-10-22T05:51:25.992Z,100.00
2022-10-22T05:53:54.961Z,100.00
2022-10-22T05:56:21.934Z,100.00
2022-10-22T05:58:49.022Z,100.00
2022-10-22T06:01:16.751Z,100.00
2022-10-22T06:03:44.059Z,100.00
2022-10-22T06:06:31.921Z,100.00
2022-10-22T06:09:06.811Z,100.00
2022-10-22T06:11:35.198Z,100.00
2022-10-22T06:14:02.280Z,100.00
2022-10-22T06:16:29.811Z,100.00
2022-10-22T06:18:56.399Z,100.00
2022-10-22T06:21:22.792Z,100.00
2022-10-22T06:23:49.218Z,100.00
2022-10-22T06:26:17.745Z,100.00
2022-10-22T06:28:44.117Z,100.00
2022-10-22T06:31:10.521Z,100.00
2022-10-22T06:33:42.159Z,100.00
2022-10-22T06:36:10.280Z,97.91
2022-10-22T06:38:36.722Z,93.90
2022-10-22T06:41:05.626Z,90.06
2022-10-22T06:43:32.091Z,87.88
2022-10-22T06:46:00.661Z,87.06
2022-10-22T06:48:27.214Z,87.08
2022-10-22T06:50:53.611Z,86.66
2022-10-22T06:55:47.433Z,87.88
2022-10-22T06:58:13.801Z,84.45
2022-10-22T07:00:40.158Z,82.54
2022-10-22T07:03:06.519Z,78.88
2022-10-22T07:05:34.144Z,74.40
2022-10-22T07:08:00.505Z,71.00
2022-10-22T07:10:29.914Z,69.09
2022-10-22T07:12:58.055Z,69.36
2022-10-22T07:15:24.988Z,66.63
2022-10-22T07:17:53.988Z,68.59
2022-10-22T07:20:21.557Z,69.45
2022-10-22T07:22:47.923Z,66.22
2022-10-22T07:25:14.363Z,63.97
2022-10-22T07:27:41.060Z,62.26
2022-10-22T07:30:08.501Z,59.94
2022-10-22T07:32:34.917Z,60.93
2022-10-22T07:35:01.344Z,58.28
2022-10-22T07:37:27.803Z,58.79
2022-10-22T07:39:54.180Z,59.83
2022-10-22T07:42:20.591Z,61.15
2022-10-22T07:44:47.028Z,66.85
2022-10-22T07:47:13.486Z,65.71
2022-10-22T07:49:39.850Z,64.96
2022-10-22T07:52:07.097Z,63.06
2022-10-22T07:54:33.582Z,63.78
2022-10-22T07:57:00.042Z,67.71
2022-10-22T07:59:26.433Z,71.30
2022-10-22T08:01:52.814Z,73.10
2022-10-22T08:04:19.195Z,73.40
2022-10-22T08:06:47.312Z,72.93
2022-10-22T08:09:14.003Z,72.92
2022-10-22T08:11:40.513Z,75.08
2022-10-22T08:14:06.885Z,73.64
2022-10-22T08:16:33.332Z,75.44
2022-10-22T08:18:59.704Z,77.50
2022-10-22T08:21:26.889Z,78.55
2022-10-22T08:23:53.381Z,77.55
2022-10-22T08:26:19.909Z,78.55
2022-10-22T08:28:51.718Z,77.40
2022-10-22T08:31:18.140Z,74.23
2022-10-22T08:33:44.521Z,73.79
2022-10-22T08:36:10.978Z,73.15
2022-10-22T08:38:37.420Z,69.80
2022-10-22T08:41:17.752Z,66.96
2022-10-22T08:43:51.215Z,69.65
2022-10-22T08:46:39.160Z,71.88
2022-10-22T08:49:12.867Z,70.23
2022-10-22T08:51:40.439Z,70.61
2022-10-22T08:54:31.553Z,66.68
2022-10-22T08:57:19.223Z,65.12
2022-10-22T08:59:51.645Z,65.70
2022-10-22T09:02:30.011Z,63.00
2022-10-22T09:05:22.712Z,62.81
2022-10-22T09:07:50.410Z,65.35
2022-10-22T09:10:19.279Z,66.22
2022-10-22T09:12:48.278Z,63.68
2022-10-22T09:15:17.240Z,63.51
2022-10-22T09:18:14.417Z,59.16
2022-10-22T09:20:46.821Z,63.37
2022-10-22T09:23:36.528Z,63.53
2022-10-22T09:26:05.088Z,61.59
2022-10-22T09:28:31.508Z,62.78
2022-10-22T09:33:31.726Z,59.35
2022-10-22T09:36:03.551Z,53.00
2022-10-22T09:38:33.169Z,50.66
2022-10-22T09:41:03.568Z,50.11
2022-10-22T09:43:30.062Z,53.12
2022-10-22T09:45:59.032Z,46.52
2022-10-22T09:48:31.250Z,44.94
2022-10-22T09:51:06.591Z,47.59
2022-10-22T09:53:39.139Z,45.32
2022-10-22T09:56:37.283Z,45.17
2022-10-22T09:59:03.787Z,45.17
2022-10-22T10:01:38.525Z,46.94
2022-10-22T10:04:10.573Z,47.46
2022-10-22T10:06:40.304Z,48.66
2022-10-22T10:09:17.451Z,45.74
2022-10-22T10:11:56.961Z,50.85
2022-10-22T10:14:41.135Z,50.57
2022-10-22T10:17:32.022Z,53.20
2022-10-22T10:20:16.088Z,58.15
2022-10-22T10:23:10.271Z,65.17
2022-10-22T10:25:45.620Z,63.04
2022-10-22T10:28:26.757Z,66.38
2022-10-22T10:31:30.743Z,66.29
2022-10-22T10:34:18.171Z,66.21
2022-10-22T10:37:14.634Z,65.35
2022-10-22T10:40:07.756Z,64.05
2022-10-22T10:42:59.883Z,62.32
2022-10-22T10:45:39.947Z,62.71
2022-10-22T10:48:45.978Z,63.79
2022-10-22T10:51:27.336Z,65.79
2022-10-22T10:54:05.550Z,67.04
2022-10-22T10:56:47.208Z,67.83
2022-10-22T10:59:16.570Z,67.98
2022-10-22T11:02:14.386Z,66.33
2022-10-22T11:04:45.056Z,63.21
2022-10-22T11:07:30.223Z,58.67
2022-10-22T11:10:39.330Z,57.04
2022-10-22T11:13:16.954Z,56.80
2022-10-22T11:15:48.533Z,55.02
2022-10-22T11:18:22.389Z,47.23
2022-10-22T11:21:15.381Z,50.98
2022-10-22T11:23:56.651Z,53.46
2022-10-22T11:26:44.370Z,50.99
2022-10-22T11:29:30.683Z,54.54
2022-10-22T11:32:01.366Z,53.09
2022-10-22T11:34:59.623Z,56.29
2022-10-22T11:37:34.462Z,61.66
2022-10-22T11:40:18.746Z,65.16
2022-10-22T11:42:49.688Z,65.86
2022-10-22T11:45:16.024Z,63.27
2022-10-22T11:47:59.260Z,61.95
2022-10-22T11:50:43.405Z,62.22
2022-10-22T11:53:12.945Z,61.18
2022-10-22T11:55:50.602Z,61.05
2022-10-22T11:58:29.082Z,59.53
2022-10-22T12:00:58.132Z,56.85
2022-10-22T12:03:41.050Z,58.23
2022-10-22T12:06:15.467Z,58.31
2022-10-22T12:08:43.769Z,56.69
2022-10-22T12:11:10.108Z,57.84
2022-10-22T12:14:03.989Z,54.11
2022-10-22T12:16:54.715Z,48.84
2022-10-22T12:19:22.742Z,45.56
2022-10-22T12:21:54.696Z,46.89
2022-10-22T12:24:24.288Z,50.71
2022-10-22T12:26:52.574Z,49.88
2022-10-22T12:29:23.680Z,53.57
2022-10-22T12:31:50.453Z,55.57
2022-10-22T12:34:21.930Z,59.93
2022-10-22T12:36:50.005Z,56.59
2022-10-22T12:39:27.520Z,58.56
2022-10-22T12:41:54.538Z,59.33
2022-10-22T12:44:21.001Z,57.96
2022-10-22T12:46:53.061Z,56.52
2022-10-22T12:49:27.680Z,60.64
2022-10-22T12:51:54.696Z,59.04
2022-10-22T12:54:30.688Z,60.32
2022-10-22T12:56:58.541Z,59.23
2022-10-22T12:59:38.994Z,59.03
2022-10-22T13:02:18.875Z,60.60
2022-10-22T13:05:16.288Z,59.68
2022-10-22T13:07:46.970Z,60.80
2022-10-22T13:10:31.202Z,61.97
2022-10-22T13:12:58.772Z,62.37
2022-10-22T13:15:28.254Z,62.13
2022-10-22T13:18:21.297Z,63.07
2022-10-22T13:20:57.127Z,63.21
2022-10-22T13:23:26.485Z,64.48
2022-10-22T13:26:02.901Z,63.20
2022-10-22T13:28:32.150Z,52.67
2022-10-22T13:31:11.308Z,44.74
2022-10-22T13:33:41.228Z,43.14
2022-10-22T13:36:12.826Z,42.48
2022-10-22T13:38:39.366Z,44.20
2022-10-22T13:41:27.854Z,46.14
2022-10-22T13:43:55.106Z,44.80
2022-10-22T13:46:22.969Z,43.65
2022-10-22T13:48:52.455Z,45.71
2022-10-22T13:51:21.433Z,45.63
2022-10-22T13:53:50.123Z,53.06
2022-10-22T13:56:19.327Z,56.28
2022-10-22T13:58:46.778Z,58.60
2022-10-22T14:01:27.676Z,58.82
2022-10-22T14:04:01.965Z,57.64
2022-10-22T14:06:32.506Z,58.78
2022-10-22T14:09:03.180Z,57.94
2022-10-22T14:11:32.722Z,57.53
2022-10-22T14:13:59.398Z,57.72
2022-10-22T14:16:32.294Z,58.80
2022-10-22T14:19:00.666Z,61.06
2022-10-22T14:21:32.951Z,61.59
2022-10-22T14:23:59.329Z,62.46
2022-10-22T14:26:30.293Z,62.78
2022-10-22T14:29:09.165Z,62.06
2022-10-22T14:31:37.513Z,61.60
2022-10-22T14:34:03.980Z,61.15
2022-10-22T14:36:30.387Z,61.76
2022-10-22T14:38:56.816Z,60.92
2022-10-22T14:41:25.948Z,62.28
2022-10-22T14:43:52.730Z,62.85
2022-10-22T14:46:19.655Z,62.88
2022-10-22T14:48:46.464Z,61.99
2022-10-22T14:51:15.170Z,63.14
2022-10-22T14:53:42.549Z,64.05
2022-10-22T14:56:18.065Z,63.84
2022-10-22T14:58:45.554Z,64.83
2022-10-22T15:01:12.086Z,62.96
2022-10-22T15:03:38.626Z,61.79
2022-10-22T15:06:05.541Z,62.92
2022-10-22T15:08:32.411Z,62.45
2022-10-22T15:11:04.519Z,62.89
2022-10-22T15:13:31.396Z,63.19
2022-10-22T15:15:58.512Z,64.36
2022-10-22T15:18:26.229Z,65.33
2022-10-22T15:20:58.004Z,66.03
2022-10-22T15:23:24.560Z,67.49
2022-10-22T15:25:51.030Z,66.57
2022-10-22T15:28:17.629Z,66.41
2022-10-22T15:30:44.065Z,68.37
2022-10-22T15:33:10.996Z,67.46
2022-10-22T15:35:37.459Z,68.65
2022-10-22T15:38:06.422Z,70.82
2022-10-22T15:40:33.024Z,71.91
2022-10-22T15:42:59.427Z,71.81
2022-10-22T15:45:25.865Z,71.17
2022-10-22T15:47:52.261Z,72.23
2022-10-22T15:50:18.713Z,73.74
2022-10-22T15:52:45.223Z,74.89
2022-10-22T15:57:43.745Z,76.68
2022-10-22T16:00:11.120Z,77.96
2022-10-22T16:02:37.538Z,78.58
2022-10-22T16:05:04.136Z,78.70
2022-10-22T16:07:31.163Z,79.47
2022-10-22T16:09:59.847Z,78.38
2022-10-22T16:12:26.274Z,78.62
2022-10-22T16:14:52.758Z,77.64
2022-10-22T16:17:19.213Z,80.11
2022-10-22T16:19:45.722Z,80.38
2022-10-22T16:22:13.762Z,81.20
2022-10-22T16:24:43.041Z,80.94
2022-10-22T16:27:10.385Z,82.33
2022-10-22T16:29:38.829Z,84.70
2022-10-22T16:32:05.595Z,86.48
2022-10-22T16:34:32.082Z,88.14
2022-10-22T16:36:58.554Z,87.80
2022-10-22T16:39:25.112Z,88.32
2022-10-22T16:41:51.782Z,87.09
2022-10-22T16:44:18.231Z,87.78
2022-10-22T16:46:44.743Z,86.59
2022-10-22T16:49:11.529Z,88.77
2022-10-22T16:51:37.989Z,88.11
2022-10-22T16:54:06.941Z,87.45
2022-10-22T16:56:36.516Z,88.89
2022-10-22T16:59:03.071Z,89.27
2022-10-22T17:01:29.819Z,89.71
2022-10-22T17:04:00.049Z,89.61
2022-10-22T17:06:26.924Z,90.49
2022-10-22T17:08:53.418Z,91.35
2022-10-22T17:11:22.394Z,91.91
2022-10-22T17:13:52.909Z,91.73
2022-10-22T17:16:24.078Z,92.50
2022-10-22T17:18:50.851Z,91.74
2022-10-22T17:21:19.104Z,91.94
2022-10-22T17:23:46.770Z,92.40
2022-10-22T17:26:20.306Z,92.84
2022-10-22T17:28:47.493Z,92.85
2022-10-22T17:31:19.848Z,93.01
2022-10-22T17:33:47.464Z,93.44
2022-10-22T17:36:14.394Z,94.71
2022-10-22T17:38:42.199Z,94.25
2022-10-22T17:41:13.795Z,93.45
2022-10-22T17:43:41.188Z,92.62
2022-10-22T17:46:10.772Z,93.10
2022-10-22T17:48:37.251Z,93.12
2022-10-22T17:51:11.991Z,94.23
2022-10-22T17:53:45.992Z,94.35
2022-10-22T17:56:14.027Z,94.04
2022-10-22T17:58:40.433Z,96.01
2022-10-22T18:01:07.664Z,95.63
2022-10-22T18:03:34.236Z,95.21
2022-10-22T18:06:07.917Z,95.17
2022-10-22T18:08:34.582Z,95.99
2022-10-22T18:11:04.990Z,95.09
2022-10-22T18:13:33.009Z,95.06
2022-10-22T18:15:59.511Z,94.29
2022-10-22T18:18:25.886Z,94.29
2022-10-22T18:20:52.737Z,94.11
2022-10-22T18:23:19.644Z,94.88
2022-10-22T18:25:48.516Z,94.37
2022-10-22T18:28:17.297Z,93.84
2022-10-22T18:30:44.778Z,94.12
2022-10-22T18:33:13.759Z,94.38
2022-10-22T18:35:41.375Z,94.99
2022-10-22T18:38:08.624Z,95.21
2022-10-22T18:40:35.995Z,94.67
2022-10-22T18:43:03.409Z,95.89
2022-10-22T18:45:29.947Z,96.55
2022-10-22T18:47:56.345Z,96.90
2022-10-22T18:50:22.752Z,96.97
2022-10-22T18:52:49.149Z,95.03
2022-10-22T18:55:15.625Z,94.30
2022-10-22T18:57:41.978Z,94.58
2022-10-22T19:00:09.018Z,95.32
2022-10-22T19:02:35.412Z,95.38
2022-10-22T19:05:01.804Z,95.52
2022-10-22T19:07:28.245Z,94.91
2022-10-22T19:09:54.642Z,95.20
2022-10-22T19:12:21.629Z,94.55
2022-10-22T19:14:48.829Z,93.77
2022-10-22T19:17:15.365Z,94.00
2022-10-22T19:19:41.757Z,94.12
2022-10-22T19:22:08.213Z,95.21
2022-10-22T19:24:34.787Z,95.75
2022-10-22T19:27:01.310Z,95.64
2022-10-22T19:29:27.978Z,96.26
2022-10-22T19:31:54.430Z,95.57
2022-10-22T19:34:21.392Z,95.33
2022-10-22T19:36:47.885Z,95.41
2022-10-22T19:39:16.562Z,95.37
2022-10-22T19:41:43.240Z,96.19
2022-10-22T19:44:10.009Z,96.71
2022-10-22T19:46:36.498Z,95.51
2022-10-22T19:49:04.484Z,95.49
2022-10-22T19:51:33.870Z,94.85
2022-10-22T19:54:04.356Z,94.95
2022-10-22T19:56:31.821Z,94.72
2022-10-22T19:58:58.626Z,94.17
2022-10-22T20:01:25.631Z,95.24
2022-10-22T20:03:52.827Z,95.32
2022-10-22T20:06:19.946Z,95.58
2022-10-22T20:08:46.753Z,96.63
2022-10-22T20:11:24.320Z,95.88
2022-10-22T20:13:52.339Z,96.26
2022-10-22T20:16:23.046Z,95.69
2022-10-22T20:18:50.454Z,96.60
2022-10-22T20:21:19.335Z,96.12
2022-10-22T20:23:47.044Z,96.09
2022-10-22T20:26:13.567Z,96.13
2022-10-22T20:28:40.201Z,95.93
2022-10-22T20:31:11.873Z,95.51
2022-10-22T20:33:38.920Z,95.78
2022-10-22T20:36:08.504Z,95.26
2022-10-22T20:41:10.179Z,96.46
2022-10-22T20:43:36.994Z,95.84
2022-10-22T20:46:07.135Z,95.62
2022-10-22T20:48:33.667Z,94.99
2022-10-22T20:51:01.375Z,95.74
2022-10-22T20:53:28.472Z,95.21
2022-10-22T20:55:57.780Z,96.06
2022-10-22T20:58:26.955Z,95.61
2022-10-22T21:00:55.003Z,95.35
2022-10-22T21:03:21.679Z,94.92
2022-10-22T21:05:48.361Z,95.24
2022-10-22T21:08:17.439Z,94.71
2022-10-22T21:10:48.901Z,95.36
2022-10-22T21:13:16.505Z,94.93
2022-10-22T21:15:42.975Z,93.93
2022-10-22T21:18:09.423Z,95.31
2022-10-22T21:20:35.889Z,95.62
2022-10-22T21:23:03.340Z,95.19
2022-10-22T21:25:29.768Z,96.07
2022-10-22T21:27:56.269Z,95.99
2022-10-22T21:30:22.678Z,95.52
2022-10-22T21:32:49.191Z,94.45
2022-10-22T21:35:15.778Z,94.30
2022-10-22T21:37:42.337Z,94.42
2022-10-22T21:40:09.432Z,94.78
2022-10-22T21:42:35.897Z,94.76
2022-10-22T21:45:02.422Z,94.42
2022-10-22T21:47:28.896Z,95.41
2022-10-22T21:49:55.449Z,95.31
2022-10-22T21:52:21.805Z,94.99
2022-10-22T21:54:48.278Z,95.04
2022-10-22T21:57:14.634Z,94.48
2022-10-22T21:59:41.057Z,94.25
2022-10-22T22:02:07.506Z,96.14
2022-10-22T22:04:37.187Z,96.97
2022-10-22T22:07:03.652Z,96.91
2022-10-22T22:09:30.077Z,96.38
2022-10-22T22:11:56.500Z,95.31
2022-10-22T22:14:22.905Z,95.03
2022-10-22T22:16:49.424Z,95.15
2022-10-22T22:19:15.795Z,96.74
2022-10-22T22:21:42.360Z,97.23
2022-10-22T22:24:12.612Z,98.48
2022-10-22T22:26:39.393Z,98.37
2022-10-22T22:29:05.764Z,97.28
2022-10-22T22:31:34.559Z,96.74
2022-10-22T22:34:03.121Z,97.22
2022-10-22T22:36:35.115Z,95.90
2022-10-22T22:39:01.989Z,94.98
2022-10-22T22:41:28.371Z,95.68
2022-10-22T22:46:22.076Z,96.15
2022-10-22T22:48:49.540Z,96.28
2022-10-22T22:51:16.065Z,96.17
2022-10-22T22:53:42.449Z,95.96
2022-10-22T22:56:17.762Z,94.77
2022-10-22T22:58:44.922Z,94.51
2022-10-22T23:01:35.072Z,94.33
2022-10-22T23:04:06.429Z,95.89
2022-10-22T23:06:37.121Z,97.17
2022-10-22T23:09:06.252Z,96.88
2022-10-22T23:11:32.998Z,96.52
2022-10-22T23:14:01.801Z,95.69
2022-10-22T23:16:31.861Z,97.77
2022-10-22T23:18:59.272Z,97.08
2022-10-22T23:21:31.439Z,97.54
2022-10-22T23:24:00.768Z,97.08
2022-10-22T23:26:33.147Z,95.97
2022-10-22T23:29:04.156Z,95.81
2022-10-22T23:31:30.688Z,95.19
2022-10-22T23:33:57.509Z,97.24
2022-10-22T23:36:24.067Z,96.52
2022-10-22T23:38:50.571Z,97.33
2022-10-22T23:41:17.612Z,96.71
2022-10-22T23:43:43.999Z,96.50
2022-10-22T23:46:12.197Z,96.88
2022-10-22T23:48:39.655Z,97.63
2022-10-22T23:51:11.845Z,97.78
2022-10-22T23:53:39.021Z,97.16
2022-10-22T23:56:08.296Z,96.85
2022-10-22T23:58:35.530Z,96.15
